Ada, Kansas
Current Conditions -  °F | °C
As of 9:53 PM on Saturday 25 Oct 2014 (Local Time) from KSLN Reporting Station
Clear Clear  
Wind Chill: 65°   Ceiling: Unl
Heat Index: 65°   Visibility: 10mi
Dew Point: 57°   Wind: 7mph
Humidity: 75%   Direction: 160°SSE
Pressure: 29.93"   Gusts: NA
Location:  39.1542°N, 97.5941°W
Report Text: KSLN 260253Z 16006KT 10SM CLR 18/14 A2993 RMK AO2 SLP129 T01830139 58005
Loading
Personal Weather Stations






























Interactive Weather Map
Tropical Storm Tracking
New forecast layout! Learn more

10-Day Weather Forecast

Advertisements
Track Severe Weather on mobile